sensor_id;sensor_type;location;lat;lon;timestamp;temperature;humidity
59301;DHT22;45073;52.740;6.784;2022-07-29T00:00:38;16.60;99.90
59301;DHT22;45073;52.740;6.784;2022-07-29T00:03:03;16.60;99.90
59301;DHT22;45073;52.740;6.784;2022-07-29T00:05:29;16.60;99.90
59301;DHT22;45073;52.740;6.784;2022-07-29T00:07:55;16.60;99.90
59301;DHT22;45073;52.740;6.784;2022-07-29T00:10:21;16.60;99.90
59301;DHT22;45073;52.740;6.784;2022-07-29T00:12:46;16.50;99.90
59301;DHT22;45073;52.740;6.784;2022-07-29T00:15:12;16.60;99.90
59301;DHT22;45073;52.740;6.784;2022-07-29T00:17:38;16.50;99.90
59301;DHT22;45073;52.740;6.784;2022-07-29T00:20:04;16.50;99.90
59301;DHT22;45073;52.740;6.784;2022-07-29T00:22:30;16.50;99.90
59301;DHT22;45073;52.740;6.784;2022-07-29T00:24:56;16.50;99.90
59301;DHT22;45073;52.740;6.784;2022-07-29T00:27:21;16.50;99.90
59301;DHT22;45073;52.740;6.784;2022-07-29T00:29:47;16.50;99.90
59301;DHT22;45073;52.740;6.784;2022-07-29T00:32:13;16.40;99.90
59301;DHT22;45073;52.740;6.784;2022-07-29T00:34:39;16.40;99.90
59301;DHT22;45073;52.740;6.784;2022-07-29T00:37:23;16.40;99.90
59301;DHT22;45073;52.740;6.784;2022-07-29T00:39:49;16.40;99.90
59301;DHT22;45073;52.740;6.784;2022-07-29T00:42:14;16.40;99.90
59301;DHT22;45073;52.740;6.784;2022-07-29T00:44:41;16.30;99.90
59301;DHT22;45073;52.740;6.784;2022-07-29T00:47:09;16.30;99.90
59301;DHT22;45073;52.740;6.784;2022-07-29T00:49:35;16.30;99.90
59301;DHT22;45073;52.740;6.784;2022-07-29T00:52:02;16.30;99.90
59301;DHT22;45073;52.740;6.784;2022-07-29T00:54:28;16.30;99.90
59301;DHT22;45073;52.740;6.784;2022-07-29T00:56:58;16.20;99.90
59301;DHT22;45073;52.740;6.784;2022-07-29T00:59:25;16.20;99.90
59301;DHT22;45073;52.740;6.784;2022-07-29T01:01:51;16.20;99.90
59301;DHT22;45073;52.740;6.784;2022-07-29T01:04:16;16.20;99.90
59301;DHT22;45073;52.740;6.784;2022-07-29T01:06:42;16.20;99.90
59301;DHT22;45073;52.740;6.784;2022-07-29T01:09:08;16.10;99.90
59301;DHT22;45073;52.740;6.784;2022-07-29T01:11:35;16.20;99.90
59301;DHT22;45073;52.740;6.784;2022-07-29T01:14:01;16.20;99.90
59301;DHT22;45073;52.740;6.784;2022-07-29T01:16:32;16.20;99.90
59301;DHT22;45073;52.740;6.784;2022-07-29T01:19:07;16.20;99.90
59301;DHT22;45073;52.740;6.784;2022-07-29T01:30:35;16.10;99.90
59301;DHT22;45073;52.740;6.784;2022-07-29T01:33:07;16.10;99.90
59301;DHT22;45073;52.740;6.784;2022-07-29T01:35:39;16.10;99.90
59301;DHT22;45073;52.740;6.784;2022-07-29T01:38:15;16.00;99.90
59301;DHT22;45073;52.740;6.784;2022-07-29T01:40:46;16.10;99.90
59301;DHT22;45073;52.740;6.784;2022-07-29T01:43:19;16.10;99.90
59301;DHT22;45073;52.740;6.784;2022-07-29T01:45:48;16.10;99.90
59301;DHT22;45073;52.740;6.784;2022-07-29T01:48:45;16.00;99.90
59301;DHT22;45073;52.740;6.784;2022-07-29T01:51:19;16.00;99.90
59301;DHT22;45073;52.740;6.784;2022-07-29T01:56:38;16.00;99.90
59301;DHT22;45073;52.740;6.784;2022-07-29T01:59:06;16.00;99.90
59301;DHT22;45073;52.740;6.784;2022-07-29T02:01:33;16.00;99.90
59301;DHT22;45073;52.740;6.784;2022-07-29T02:04:03;15.90;99.90
59301;DHT22;45073;52.740;6.784;2022-07-29T02:06:32;16.00;99.90
59301;DHT22;45073;52.740;6.784;2022-07-29T02:08:59;16.00;99.90
59301;DHT22;45073;52.740;6.784;2022-07-29T02:11:25;16.00;99.90
59301;DHT22;45073;52.740;6.784;2022-07-29T02:13:53;16.00;99.90
59301;DHT22;45073;52.740;6.784;2022-07-29T02:16:21;16.00;99.90
59301;DHT22;45073;52.740;6.784;2022-07-29T02:18:50;16.00;99.90
59301;DHT22;45073;52.740;6.784;2022-07-29T02:21:21;16.00;99.90
59301;DHT22;45073;52.740;6.784;2022-07-29T02:23:48;15.90;99.90
59301;DHT22;45073;52.740;6.784;2022-07-29T02:26:15;15.90;99.90
59301;DHT22;45073;52.740;6.784;2022-07-29T02:28:42;16.00;99.90
59301;DHT22;45073;52.740;6.784;2022-07-29T02:31:09;16.00;99.90
59301;DHT22;45073;52.740;6.784;2022-07-29T02:33:37;15.90;99.90
59301;DHT22;45073;52.740;6.784;2022-07-29T02:36:04;15.90;99.90
59301;DHT22;45073;52.740;6.784;2022-07-29T02:38:31;15.90;99.90
59301;DHT22;45073;52.740;6.784;2022-07-29T02:41:18;15.90;99.90
59301;DHT22;45073;52.740;6.784;2022-07-29T02:43:47;15.90;99.90
59301;DHT22;45073;52.740;6.784;2022-07-29T02:46:19;15.90;99.90
59301;DHT22;45073;52.740;6.784;2022-07-29T02:48:59;15.90;99.90
59301;DHT22;45073;52.740;6.784;2022-07-29T02:51:46;15.90;99.90
59301;DHT22;45073;52.740;6.784;2022-07-29T02:54:20;15.90;99.90
59301;DHT22;45073;52.740;6.784;2022-07-29T02:56:48;15.90;99.90
59301;DHT22;45073;52.740;6.784;2022-07-29T02:59:17;15.80;99.90
59301;DHT22;45073;52.740;6.784;2022-07-29T03:01:47;15.90;99.90
59301;DHT22;45073;52.740;6.784;2022-07-29T03:04:13;15.80;99.90
59301;DHT22;45073;52.740;6.784;2022-07-29T03:06:40;15.80;99.90
59301;DHT22;45073;52.740;6.784;2022-07-29T03:09:07;15.80;99.90
59301;DHT22;45073;52.740;6.784;2022-07-29T03:11:35;15.80;99.90
59301;DHT22;45073;52.740;6.784;2022-07-29T03:14:02;15.80;99.90
59301;DHT22;45073;52.740;6.784;2022-07-29T03:16:29;15.90;99.90
59301;DHT22;45073;52.740;6.784;2022-07-29T03:18:55;15.80;99.90
59301;DHT22;45073;52.740;6.784;2022-07-29T03:21:21;15.90;99.90
59301;DHT22;45073;52.740;6.784;2022-07-29T03:23:47;15.90;99.90
59301;DHT22;45073;52.740;6.784;2022-07-29T03:26:13;15.80;99.90
59301;DHT22;45073;52.740;6.784;2022-07-29T03:28:38;15.80;99.90
59301;DHT22;45073;52.740;6.784;2022-07-29T03:31:04;15.80;99.90
59301;DHT22;45073;52.740;6.784;2022-07-29T03:33:29;15.80;99.90
59301;DHT22;45073;52.740;6.784;2022-07-29T03:35:56;15.80;99.90
59301;DHT22;45073;52.740;6.784;2022-07-29T03:38:24;15.80;99.90
59301;DHT22;45073;52.740;6.784;2022-07-29T03:40:58;15.80;99.90
59301;DHT22;45073;52.740;6.784;2022-07-29T03:43:30;15.80;99.90
59301;DHT22;45073;52.740;6.784;2022-07-29T03:45:57;15.70;99.90
59301;DHT22;45073;52.740;6.784;2022-07-29T03:48:25;15.70;99.90
59301;DHT22;45073;52.740;6.784;2022-07-29T03:50:51;15.70;99.90
59301;DHT22;45073;52.740;6.784;2022-07-29T03:53:18;15.70;99.90
59301;DHT22;45073;52.740;6.784;2022-07-29T03:55:46;15.80;99.90
59301;DHT22;45073;52.740;6.784;2022-07-29T03:58:14;15.80;99.90
59301;DHT22;45073;52.740;6.784;2022-07-29T04:00:42;15.70;99.90
59301;DHT22;45073;52.740;6.784;2022-07-29T04:03:08;15.70;99.90
59301;DHT22;45073;52.740;6.784;2022-07-29T04:05:34;15.70;99.90
59301;DHT22;45073;52.740;6.784;2022-07-29T04:08:00;15.70;99.90
59301;DHT22;45073;52.740;6.784;2022-07-29T04:10:26;15.60;99.90
59301;DHT22;45073;52.740;6.784;2022-07-29T04:12:52;15.60;99.90
59301;DHT22;45073;52.740;6.784;2022-07-29T04:15:18;15.70;99.90
59301;DHT22;45073;52.740;6.784;2022-07-29T04:17:43;15.60;99.90
59301;DHT22;45073;52.740;6.784;2022-07-29T04:20:10;15.60;99.90
59301;DHT22;45073;52.740;6.784;2022-07-29T04:22:38;15.70;99.90
59301;DHT22;45073;52.740;6.784;2022-07-29T04:25:04;15.70;99.90
59301;DHT22;45073;52.740;6.784;2022-07-29T04:27:30;15.60;99.90
59301;DHT22;45073;52.740;6.784;2022-07-29T04:29:56;15.60;99.90
59301;DHT22;45073;52.740;6.784;2022-07-29T04:32:21;15.70;99.90
59301;DHT22;45073;52.740;6.784;2022-07-29T04:34:47;15.70;99.90
59301;DHT22;45073;52.740;6.784;2022-07-29T04:37:13;15.70;99.90
59301;DHT22;45073;52.740;6.784;2022-07-29T04:39:38;15.70;99.90
59301;DHT22;45073;52.740;6.784;2022-07-29T04:42:04;15.70;99.90
59301;DHT22;45073;52.740;6.784;2022-07-29T04:44:30;15.70;99.90
59301;DHT22;45073;52.740;6.784;2022-07-29T04:46:56;15.70;99.90
59301;DHT22;45073;52.740;6.784;2022-07-29T04:49:22;15.70;99.90
59301;DHT22;45073;52.740;6.784;2022-07-29T04:51:48;15.70;99.90
59301;DHT22;45073;52.740;6.784;2022-07-29T04:54:14;15.80;99.90
59301;DHT22;45073;52.740;6.784;2022-07-29T04:56:40;15.80;99.90
59301;DHT22;45073;52.740;6.784;2022-07-29T04:59:07;15.80;99.90
59301;DHT22;45073;52.740;6.784;2022-07-29T05:01:32;15.70;99.90
59301;DHT22;45073;52.740;6.784;2022-07-29T05:03:58;15.70;99.90
59301;DHT22;45073;52.740;6.784;2022-07-29T05:06:23;15.70;99.90
59301;DHT22;45073;52.740;6.784;2022-07-29T05:08:49;15.80;99.90
59301;DHT22;45073;52.740;6.784;2022-07-29T05:11:14;15.80;99.90
59301;DHT22;45073;52.740;6.784;2022-07-29T05:13:40;15.80;99.90
59301;DHT22;45073;52.740;6.784;2022-07-29T05:16:06;15.80;99.90
59301;DHT22;45073;52.740;6.784;2022-07-29T05:18:32;15.80;99.90
59301;DHT22;45073;52.740;6.784;2022-07-29T05:20:58;15.80;99.90
59301;DHT22;45073;52.740;6.784;2022-07-29T05:23:24;15.90;99.90
59301;DHT22;45073;52.740;6.784;2022-07-29T05:25:49;15.90;99.90
59301;DHT22;45073;52.740;6.784;2022-07-29T05:28:15;15.90;99.90
59301;DHT22;45073;52.740;6.784;2022-07-29T05:30:41;16.00;99.90
59301;DHT22;45073;52.740;6.784;2022-07-29T05:33:07;16.00;99.90
59301;DHT22;45073;52.740;6.784;2022-07-29T05:35:33;16.00;99.90
59301;DHT22;45073;52.740;6.784;2022-07-29T05:38:00;16.10;99.90
59301;DHT22;45073;52.740;6.784;2022-07-29T05:40:25;16.10;99.90
59301;DHT22;45073;52.740;6.784;2022-07-29T05:42:51;16.10;99.90
59301;DHT22;45073;52.740;6.784;2022-07-29T05:45:17;16.20;99.90
59301;DHT22;45073;52.740;6.784;2022-07-29T05:47:42;16.10;99.90
59301;DHT22;45073;52.740;6.784;2022-07-29T05:50:08;16.20;99.90
59301;DHT22;45073;52.740;6.784;2022-07-29T05:52:34;16.20;99.90
59301;DHT22;45073;52.740;6.784;2022-07-29T05:54:59;16.30;99.90
59301;DHT22;45073;52.740;6.784;2022-07-29T05:57:28;16.30;99.90
59301;DHT22;45073;52.740;6.784;2022-07-29T05:59:53;16.40;99.90
59301;DHT22;45073;52.740;6.784;2022-07-29T06:02:19;16.50;99.90
59301;DHT22;45073;52.740;6.784;2022-07-29T06:04:45;16.50;99.90
59301;DHT22;45073;52.740;6.784;2022-07-29T06:07:10;16.60;99.90
59301;DHT22;45073;52.740;6.784;2022-07-29T06:09:36;16.70;99.90
59301;DHT22;45073;52.740;6.784;2022-07-29T06:12:02;16.70;99.90
59301;DHT22;45073;52.740;6.784;2022-07-29T06:14:28;16.80;99.90
59301;DHT22;45073;52.740;6.784;2022-07-29T06:16:54;16.90;99.90
59301;DHT22;45073;52.740;6.784;2022-07-29T06:19:20;16.90;99.90
59301;DHT22;45073;52.740;6.784;2022-07-29T06:21:46;16.90;99.90
59301;DHT22;45073;52.740;6.784;2022-07-29T06:24:12;17.00;99.90
59301;DHT22;45073;52.740;6.784;2022-07-29T06:26:39;17.00;99.90
59301;DHT22;45073;52.740;6.784;2022-07-29T06:29:05;17.10;99.90
59301;DHT22;45073;52.740;6.784;2022-07-29T06:31:30;17.20;99.90
59301;DHT22;45073;52.740;6.784;2022-07-29T06:33:56;17.30;99.90
59301;DHT22;45073;52.740;6.784;2022-07-29T06:36:22;17.30;99.90
59301;DHT22;45073;52.740;6.784;2022-07-29T06:38:47;17.40;99.90
59301;DHT22;45073;52.740;6.784;2022-07-29T06:41:13;17.40;99.90
59301;DHT22;45073;52.740;6.784;2022-07-29T06:43:42;17.40;99.90
59301;DHT22;45073;52.740;6.784;2022-07-29T06:46:12;17.40;99.90
59301;DHT22;45073;52.740;6.784;2022-07-29T06:48:39;17.40;99.90
59301;DHT22;45073;52.740;6.784;2022-07-29T06:51:06;17.50;99.90
59301;DHT22;45073;52.740;6.784;2022-07-29T06:53:33;17.50;99.90
59301;DHT22;45073;52.740;6.784;2022-07-29T06:56:00;17.50;99.90
59301;DHT22;45073;52.740;6.784;2022-07-29T06:58:26;17.50;99.90
59301;DHT22;45073;52.740;6.784;2022-07-29T07:00:52;17.50;99.90
59301;DHT22;45073;52.740;6.784;2022-07-29T07:03:18;17.60;99.90
59301;DHT22;45073;52.740;6.784;2022-07-29T07:05:45;17.60;99.90
59301;DHT22;45073;52.740;6.784;2022-07-29T07:08:12;17.60;99.90
59301;DHT22;45073;52.740;6.784;2022-07-29T07:10:38;17.60;99.90
59301;DHT22;45073;52.740;6.784;2022-07-29T07:13:04;17.70;99.90
59301;DHT22;45073;52.740;6.784;2022-07-29T07:15:31;17.70;99.90
59301;DHT22;45073;52.740;6.784;2022-07-29T07:17:57;17.80;99.90
59301;DHT22;45073;52.740;6.784;2022-07-29T07:20:23;17.80;99.90
59301;DHT22;45073;52.740;6.784;2022-07-29T07:22:49;17.90;99.90
59301;DHT22;45073;52.740;6.784;2022-07-29T07:25:14;17.90;99.90
59301;DHT22;45073;52.740;6.784;2022-07-29T07:27:40;18.00;99.90
59301;DHT22;45073;52.740;6.784;2022-07-29T07:30:07;18.00;99.90
59301;DHT22;45073;52.740;6.784;2022-07-29T07:32:34;18.10;99.90
59301;DHT22;45073;52.740;6.784;2022-07-29T07:35:00;18.10;99.90
59301;DHT22;45073;52.740;6.784;2022-07-29T07:37:26;18.20;99.90
59301;DHT22;45073;52.740;6.784;2022-07-29T07:39:52;18.30;99.90
59301;DHT22;45073;52.740;6.784;2022-07-29T07:42:18;18.40;99.90
59301;DHT22;45073;52.740;6.784;2022-07-29T07:44:44;18.40;99.90
59301;DHT22;45073;52.740;6.784;2022-07-29T07:47:11;18.50;99.90
59301;DHT22;45073;52.740;6.784;2022-07-29T07:49:37;18.60;99.90
59301;DHT22;45073;52.740;6.784;2022-07-29T07:52:03;18.60;99.90
59301;DHT22;45073;52.740;6.784;2022-07-29T07:54:28;18.60;99.90
59301;DHT22;45073;52.740;6.784;2022-07-29T07:56:57;18.60;99.90
59301;DHT22;45073;52.740;6.784;2022-07-29T07:59:23;18.60;99.90
59301;DHT22;45073;52.740;6.784;2022-07-29T08:01:49;18.60;99.90
59301;DHT22;45073;52.740;6.784;2022-07-29T08:04:15;18.60;99.90
59301;DHT22;45073;52.740;6.784;2022-07-29T08:06:40;18.60;99.90
59301;DHT22;45073;52.740;6.784;2022-07-29T08:09:06;18.60;99.90
59301;DHT22;45073;52.740;6.784;2022-07-29T08:11:32;18.60;99.90
59301;DHT22;45073;52.740;6.784;2022-07-29T08:13:58;18.60;99.90
59301;DHT22;45073;52.740;6.784;2022-07-29T08:16:23;18.70;99.90
59301;DHT22;45073;52.740;6.784;2022-07-29T08:18:51;18.70;99.90
59301;DHT22;45073;52.740;6.784;2022-07-29T08:21:17;18.70;99.90
59301;DHT22;45073;52.740;6.784;2022-07-29T08:23:46;18.70;99.90
59301;DHT22;45073;52.740;6.784;2022-07-29T08:26:15;18.70;99.90
59301;DHT22;45073;52.740;6.784;2022-07-29T08:28:42;18.80;99.90
59301;DHT22;45073;52.740;6.784;2022-07-29T08:31:12;18.80;99.90
59301;DHT22;45073;52.740;6.784;2022-07-29T08:33:38;18.80;99.90
59301;DHT22;45073;52.740;6.784;2022-07-29T08:36:05;18.90;99.90
59301;DHT22;45073;52.740;6.784;2022-07-29T08:38:32;19.00;99.90
59301;DHT22;45073;52.740;6.784;2022-07-29T08:40:58;19.10;99.90
59301;DHT22;45073;52.740;6.784;2022-07-29T08:43:25;19.10;99.90
59301;DHT22;45073;52.740;6.784;2022-07-29T08:45:51;19.20;99.90
59301;DHT22;45073;52.740;6.784;2022-07-29T08:48:21;19.20;99.90
59301;DHT22;45073;52.740;6.784;2022-07-29T08:50:50;19.30;99.90
59301;DHT22;45073;52.740;6.784;2022-07-29T08:53:17;19.30;99.90
59301;DHT22;45073;52.740;6.784;2022-07-29T08:55:45;19.30;99.90
59301;DHT22;45073;52.740;6.784;2022-07-29T08:58:11;19.30;99.90
59301;DHT22;45073;52.740;6.784;2022-07-29T09:00:39;19.30;99.90
59301;DHT22;45073;52.740;6.784;2022-07-29T09:03:06;19.30;99.90
59301;DHT22;45073;52.740;6.784;2022-07-29T09:05:34;19.30;99.90
59301;DHT22;45073;52.740;6.784;2022-07-29T09:08:00;19.30;99.90
59301;DHT22;45073;52.740;6.784;2022-07-29T09:10:26;19.30;99.90
59301;DHT22;45073;52.740;6.784;2022-07-29T09:12:54;19.30;99.90
59301;DHT22;45073;52.740;6.784;2022-07-29T09:15:20;19.30;99.90
59301;DHT22;45073;52.740;6.784;2022-07-29T09:17:47;19.30;99.90
59301;DHT22;45073;52.740;6.784;2022-07-29T09:20:19;19.40;99.90
59301;DHT22;45073;52.740;6.784;2022-07-29T09:22:45;19.40;99.90
59301;DHT22;45073;52.740;6.784;2022-07-29T09:25:35;19.40;99.90
59301;DHT22;45073;52.740;6.784;2022-07-29T09:28:13;19.50;99.90
59301;DHT22;45073;52.740;6.784;2022-07-29T09:30:56;19.50;99.90
59301;DHT22;45073;52.740;6.784;2022-07-29T09:33:24;19.60;99.90
59301;DHT22;45073;52.740;6.784;2022-07-29T09:36:03;19.60;99.90
59301;DHT22;45073;52.740;6.784;2022-07-29T09:38:28;19.60;99.90
59301;DHT22;45073;52.740;6.784;2022-07-29T09:40:58;19.70;99.90
59301;DHT22;45073;52.740;6.784;2022-07-29T09:43:24;19.70;99.90
59301;DHT22;45073;52.740;6.784;2022-07-29T09:45:49;19.80;99.90
59301;DHT22;45073;52.740;6.784;2022-07-29T09:48:23;19.90;99.90
59301;DHT22;45073;52.740;6.784;2022-07-29T09:50:49;19.90;99.90
59301;DHT22;45073;52.740;6.784;2022-07-29T09:53:35;20.00;99.90
59301;DHT22;45073;52.740;6.784;2022-07-29T09:56:02;20.10;99.90
59301;DHT22;45073;52.740;6.784;2022-07-29T09:58:28;20.20;99.90
59301;DHT22;45073;52.740;6.784;2022-07-29T10:00:55;20.20;99.90
59301;DHT22;45073;52.740;6.784;2022-07-29T10:03:23;20.20;99.90
59301;DHT22;45073;52.740;6.784;2022-07-29T10:06:06;20.30;99.90
59301;DHT22;45073;52.740;6.784;2022-07-29T10:08:32;20.30;99.90
59301;DHT22;45073;52.740;6.784;2022-07-29T10:11:15;20.30;99.90
59301;DHT22;45073;52.740;6.784;2022-07-29T10:13:43;20.30;99.90
59301;DHT22;45073;52.740;6.784;2022-07-29T10:16:09;20.40;99.90
59301;DHT22;45073;52.740;6.784;2022-07-29T10:18:35;20.40;99.90
59301;DHT22;45073;52.740;6.784;2022-07-29T10:21:01;20.40;99.90
59301;DHT22;45073;52.740;6.784;2022-07-29T10:23:28;20.40;99.90
59301;DHT22;45073;52.740;6.784;2022-07-29T10:25:54;20.50;99.90
59301;DHT22;45073;52.740;6.784;2022-07-29T10:28:20;20.40;99.90
59301;DHT22;45073;52.740;6.784;2022-07-29T10:30:46;20.50;99.90
59301;DHT22;45073;52.740;6.784;2022-07-29T10:36:09;20.50;99.90
59301;DHT22;45073;52.740;6.784;2022-07-29T10:38:41;20.40;99.90
59301;DHT22;45073;52.740;6.784;2022-07-29T10:44:02;20.50;99.90
59301;DHT22;45073;52.740;6.784;2022-07-29T10:46:35;20.50;99.90
59301;DHT22;45073;52.740;6.784;2022-07-29T10:49:18;20.50;99.90
59301;DHT22;45073;52.740;6.784;2022-07-29T10:57:30;20.60;99.90
59301;DHT22;45073;52.740;6.784;2022-07-29T11:05:06;20.60;99.90
59301;DHT22;45073;52.740;6.784;2022-07-29T11:07:34;20.60;99.90
59301;DHT22;45073;52.740;6.784;2022-07-29T11:15:04;20.70;99.90
59301;DHT22;45073;52.740;6.784;2022-07-29T11:20:45;20.80;99.90
59301;DHT22;45073;52.740;6.784;2022-07-29T11:23:32;20.80;99.90
59301;DHT22;45073;52.740;6.784;2022-07-29T11:26:19;20.90;99.90
59301;DHT22;45073;52.740;6.784;2022-07-29T11:31:39;20.90;99.90
59301;DHT22;45073;52.740;6.784;2022-07-29T11:39:32;21.10;99.90
59301;DHT22;45073;52.740;6.784;2022-07-29T11:47:25;21.20;99.90
59301;DHT22;45073;52.740;6.784;2022-07-29T11:49:51;21.20;99.90
59301;DHT22;45073;52.740;6.784;2022-07-29T11:52:21;21.20;99.90
59301;DHT22;45073;52.740;6.784;2022-07-29T11:54:50;21.30;99.90
59301;DHT22;45073;52.740;6.784;2022-07-29T11:57:17;21.30;99.90
59301;DHT22;45073;52.740;6.784;2022-07-29T11:59:45;21.30;99.90
59301;DHT22;45073;52.740;6.784;2022-07-29T12:02:12;21.40;99.90
59301;DHT22;45073;52.740;6.784;2022-07-29T12:07:16;21.50;99.90
59301;DHT22;45073;52.740;6.784;2022-07-29T12:09:52;21.50;99.90
59301;DHT22;45073;52.740;6.784;2022-07-29T12:12:18;21.60;99.90
59301;DHT22;45073;52.740;6.784;2022-07-29T12:14:44;21.60;99.90
59301;DHT22;45073;52.740;6.784;2022-07-29T12:20:27;21.70;99.90
59301;DHT22;45073;52.740;6.784;2022-07-29T12:22:53;21.80;99.90
59301;DHT22;45073;52.740;6.784;2022-07-29T12:25:20;21.80;99.90
59301;DHT22;45073;52.740;6.784;2022-07-29T12:27:57;21.90;99.90
59301;DHT22;45073;52.740;6.784;2022-07-29T12:30:22;22.00;99.90
59301;DHT22;45073;52.740;6.784;2022-07-29T12:32:48;22.10;99.90
59301;DHT22;45073;52.740;6.784;2022-07-29T12:35:32;22.20;99.90
59301;DHT22;45073;52.740;6.784;2022-07-29T12:37:58;22.20;99.90
59301;DHT22;45073;52.740;6.784;2022-07-29T12:40:24;22.30;99.90
59301;DHT22;45073;52.740;6.784;2022-07-29T12:43:11;22.40;99.90
59301;DHT22;45073;52.740;6.784;2022-07-29T12:45:45;22.40;99.90
59301;DHT22;45073;52.740;6.784;2022-07-29T12:48:11;22.40;99.90
59301;DHT22;45073;52.740;6.784;2022-07-29T12:50:52;22.50;99.90
59301;DHT22;45073;52.740;6.784;2022-07-29T12:53:18;22.50;99.90
59301;DHT22;45073;52.740;6.784;2022-07-29T12:55:46;22.50;99.90
59301;DHT22;45073;52.740;6.784;2022-07-29T12:58:38;22.50;99.90
59301;DHT22;45073;52.740;6.784;2022-07-29T13:03:58;22.60;99.90
59301;DHT22;45073;52.740;6.784;2022-07-29T13:06:36;22.70;99.90
59301;DHT22;45073;52.740;6.784;2022-07-29T13:09:07;22.70;99.90
59301;DHT22;45073;52.740;6.784;2022-07-29T13:11:33;22.70;99.90
59301;DHT22;45073;52.740;6.784;2022-07-29T13:13:59;22.80;99.90
59301;DHT22;45073;52.740;6.784;2022-07-29T13:16:25;22.80;99.90
59301;DHT22;45073;52.740;6.784;2022-07-29T13:19:04;22.80;99.90
59301;DHT22;45073;52.740;6.784;2022-07-29T13:21:30;22.90;99.90
59301;DHT22;45073;52.740;6.784;2022-07-29T13:23:55;22.90;99.90
59301;DHT22;45073;52.740;6.784;2022-07-29T13:26:21;23.00;99.90
59301;DHT22;45073;52.740;6.784;2022-07-29T13:28:46;23.10;99.90
59301;DHT22;45073;52.740;6.784;2022-07-29T13:31:12;23.20;99.90
59301;DHT22;45073;52.740;6.784;2022-07-29T13:33:38;23.20;99.90
59301;DHT22;45073;52.740;6.784;2022-07-29T13:36:03;23.30;99.90
59301;DHT22;45073;52.740;6.784;2022-07-29T13:38:29;23.40;99.90
59301;DHT22;45073;52.740;6.784;2022-07-29T13:40:54;23.40;99.90
59301;DHT22;45073;52.740;6.784;2022-07-29T13:43:20;23.50;99.90
59301;DHT22;45073;52.740;6.784;2022-07-29T13:45:46;23.50;99.90
59301;DHT22;45073;52.740;6.784;2022-07-29T13:48:11;23.60;99.90
59301;DHT22;45073;52.740;6.784;2022-07-29T13:50:37;23.60;99.90
59301;DHT22;45073;52.740;6.784;2022-07-29T13:53:03;23.70;99.90
59301;DHT22;45073;52.740;6.784;2022-07-29T13:55:29;23.70;99.90
59301;DHT22;45073;52.740;6.784;2022-07-29T13:57:55;23.80;99.20
59301;DHT22;45073;52.740;6.784;2022-07-29T14:00:20;23.80;98.10
59301;DHT22;45073;52.740;6.784;2022-07-29T14:02:46;23.80;98.20
59301;DHT22;45073;52.740;6.784;2022-07-29T14:05:11;23.90;97.00
59301;DHT22;45073;52.740;6.784;2022-07-29T14:07:38;23.90;97.00
59301;DHT22;45073;52.740;6.784;2022-07-29T14:10:07;23.90;97.10
59301;DHT22;45073;52.740;6.784;2022-07-29T14:12:33;23.90;95.60
59301;DHT22;45073;52.740;6.784;2022-07-29T14:14:58;23.90;96.00
59301;DHT22;45073;52.740;6.784;2022-07-29T14:17:24;23.90;95.80
59301;DHT22;45073;52.740;6.784;2022-07-29T14:19:49;23.90;97.10
59301;DHT22;45073;52.740;6.784;2022-07-29T14:22:15;23.90;97.60
59301;DHT22;45073;52.740;6.784;2022-07-29T14:24:41;23.90;97.50
59301;DHT22;45073;52.740;6.784;2022-07-29T14:27:07;23.90;97.40
59301;DHT22;45073;52.740;6.784;2022-07-29T14:29:33;24.00;97.80
59301;DHT22;45073;52.740;6.784;2022-07-29T14:31:59;24.00;98.20
59301;DHT22;45073;52.740;6.784;2022-07-29T14:34:25;24.00;96.70
59301;DHT22;45073;52.740;6.784;2022-07-29T14:36:50;24.00;97.10
59301;DHT22;45073;52.740;6.784;2022-07-29T14:39:16;24.10;98.10
59301;DHT22;45073;52.740;6.784;2022-07-29T14:41:42;24.20;97.90
59301;DHT22;45073;52.740;6.784;2022-07-29T14:44:08;24.20;96.90
59301;DHT22;45073;52.740;6.784;2022-07-29T14:46:34;24.30;97.00
59301;DHT22;45073;52.740;6.784;2022-07-29T14:48:59;24.40;97.00
59301;DHT22;45073;52.740;6.784;2022-07-29T14:51:25;24.50;97.80
59301;DHT22;45073;52.740;6.784;2022-07-29T14:53:50;24.70;98.00
59301;DHT22;45073;52.740;6.784;2022-07-29T14:56:16;24.80;97.60
59301;DHT22;45073;52.740;6.784;2022-07-29T14:58:41;25.00;96.80
59301;DHT22;45073;52.740;6.784;2022-07-29T15:01:07;25.10;95.40
59301;DHT22;45073;52.740;6.784;2022-07-29T15:03:33;25.20;94.90
59301;DHT22;45073;52.740;6.784;2022-07-29T15:05:58;25.20;93.10
59301;DHT22;45073;52.740;6.784;2022-07-29T15:08:24;25.30;93.90
59301;DHT22;45073;52.740;6.784;2022-07-29T15:10:50;25.30;92.50
59301;DHT22;45073;52.740;6.784;2022-07-29T15:13:16;25.30;92.30
59301;DHT22;45073;52.740;6.784;2022-07-29T15:15:42;25.20;93.00
59301;DHT22;45073;52.740;6.784;2022-07-29T15:18:07;25.20;93.30
59301;DHT22;45073;52.740;6.784;2022-07-29T15:20:34;25.20;92.80
59301;DHT22;45073;52.740;6.784;2022-07-29T15:23:00;25.20;91.90
59301;DHT22;45073;52.740;6.784;2022-07-29T15:25:26;25.30;92.70
59301;DHT22;45073;52.740;6.784;2022-07-29T15:27:51;25.30;92.90
59301;DHT22;45073;52.740;6.784;2022-07-29T15:30:17;25.50;92.60
59301;DHT22;45073;52.740;6.784;2022-07-29T15:32:43;25.60;92.50
59301;DHT22;45073;52.740;6.784;2022-07-29T15:35:09;25.60;91.40
59301;DHT22;45073;52.740;6.784;2022-07-29T15:37:38;25.70;90.00
59301;DHT22;45073;52.740;6.784;2022-07-29T15:40:05;25.60;88.00
59301;DHT22;45073;52.740;6.784;2022-07-29T15:42:31;25.60;84.70
59301;DHT22;45073;52.740;6.784;2022-07-29T15:44:57;25.60;82.00
59301;DHT22;45073;52.740;6.784;2022-07-29T15:47:22;25.50;79.40
59301;DHT22;45073;52.740;6.784;2022-07-29T15:49:48;25.50;81.30
59301;DHT22;45073;52.740;6.784;2022-07-29T15:52:18;25.50;81.80
59301;DHT22;45073;52.740;6.784;2022-07-29T15:54:44;25.40;82.30
59301;DHT22;45073;52.740;6.784;2022-07-29T15:57:10;25.30;79.90
59301;DHT22;45073;52.740;6.784;2022-07-29T15:59:36;25.30;79.90
59301;DHT22;45073;52.740;6.784;2022-07-29T16:02:02;25.20;80.90
59301;DHT22;45073;52.740;6.784;2022-07-29T16:04:28;25.20;80.70
59301;DHT22;45073;52.740;6.784;2022-07-29T16:06:54;25.20;80.50
59301;DHT22;45073;52.740;6.784;2022-07-29T16:09:19;25.20;80.30
59301;DHT22;45073;52.740;6.784;2022-07-29T16:11:46;25.20;82.20
59301;DHT22;45073;52.740;6.784;2022-07-29T16:14:15;25.10;84.30
59301;DHT22;45073;52.740;6.784;2022-07-29T16:16:41;25.10;86.20
59301;DHT22;45073;52.740;6.784;2022-07-29T16:19:07;25.20;86.20
59301;DHT22;45073;52.740;6.784;2022-07-29T16:21:34;25.20;84.60
59301;DHT22;45073;52.740;6.784;2022-07-29T16:24:00;25.20;84.90
59301;DHT22;45073;52.740;6.784;2022-07-29T16:26:26;25.20;85.30
59301;DHT22;45073;52.740;6.784;2022-07-29T16:28:52;25.20;84.10
59301;DHT22;45073;52.740;6.784;2022-07-29T16:31:18;25.20;83.10